Time;durP1;ratioP1;P1;durP2;ratioP2;P2;SDS_P1;SDS_P2;PMS_P1;PMS_P2;Temp;Humidity;BMP_temperature;BMP_pressure;BME280_temperature;BME280_humidity;BME280_pressure;Samples;Min_cycle;Max_cycle;Signal;HPM_P1;HPM_P2
2023/05/13 00:01:29;;;;;;;8.13;6.00;;;;;;;;;;4960418;28;20541;-84
2023/05/13 00:03:55;;;;;;;7.82;4.97;;;;;;;;;;4966136;28;20112;-82
2023/05/13 00:06:21;;;;;;;7.00;5.95;;;;;;;;;;4947728;28;20094;-84
2023/05/13 00:08:47;;;;;;;11.98;6.57;;;;;;;;;;4964498;28;20039;-86
2023/05/13 00:11:13;;;;;;;9.95;6.15;;;;;;;;;;4967486;28;20529;-86
2023/05/13 00:13:39;;;;;;;9.93;5.45;;;;;;;;;;4965430;28;20066;-83
2023/05/13 00:16:05;;;;;;;10.02;6.07;;;;;;;;;;4967405;28;20039;-84
2023/05/13 00:18:31;;;;;;;13.05;6.07;;;;;;;;;;4948256;28;20420;-83
2023/05/13 00:20:57;;;;;;;9.07;6.22;;;;;;;;;;4947816;28;20418;-87
2023/05/13 00:23:23;;;;;;;8.23;5.82;;;;;;;;;;4967900;28;20023;-86
2023/05/13 00:25:49;;;;;;;13.77;6.30;;;;;;;;;;4947200;28;20037;-84
2023/05/13 00:28:15;;;;;;;11.27;5.82;;;;;;;;;;4944414;28;20045;-85
2023/05/13 00:30:44;;;;;;;10.10;6.45;;;;;;;;;;4965257;28;20493;-85
2023/05/13 00:33:10;;;;;;;13.52;7.50;;;;;;;;;;4963977;28;20400;-87
2023/05/13 00:35:36;;;;;;;8.20;5.70;;;;;;;;;;4949205;28;20448;-80
2023/05/13 00:38:02;;;;;;;9.07;6.13;;;;;;;;;;4965198;28;20050;-84
2023/05/13 00:40:28;;;;;;;10.80;5.93;;;;;;;;;;4950462;28;20042;-84
2023/05/13 00:42:54;;;;;;;9.95;5.70;;;;;;;;;;4946686;28;20051;-86
2023/05/13 00:45:20;;;;;;;11.65;5.95;;;;;;;;;;4969640;28;20035;-84
2023/05/13 00:47:48;;;;;;;12.90;6.50;;;;;;;;;;4966422;28;20039;-85
2023/05/13 00:50:15;;;;;;;8.23;6.10;;;;;;;;;;4958579;28;20118;-88
2023/05/13 00:52:41;;;;;;;12.30;6.75;;;;;;;;;;4965553;28;20487;-85
2023/05/13 00:55:08;;;;;;;9.90;6.40;;;;;;;;;;4947609;28;20030;-85
2023/05/13 00:57:35;;;;;;;14.20;6.78;;;;;;;;;;4969047;28;20043;-82
2023/05/13 01:00:02;;;;;;;8.63;6.38;;;;;;;;;;4964948;28;20070;-86
2023/05/13 01:02:41;;;;;;;10.68;6.25;;;;;;;;;;4969310;28;20523;-85
2023/05/13 01:05:26;;;;;;;11.77;6.93;;;;;;;;;;4970456;28;20387;-86
2023/05/13 01:08:12;;;;;;;14.18;7.43;;;;;;;;;;4951258;28;20034;-82
2023/05/13 01:10:45;;;;;;;10.23;6.50;;;;;;;;;;4955307;28;20043;-85
2023/05/13 01:13:13;;;;;;;12.57;6.82;;;;;;;;;;4970342;28;20495;-86
2023/05/13 01:15:46;;;;;;;19.23;7.25;;;;;;;;;;4966295;28;20038;-84
2023/05/13 01:18:15;;;;;;;10.27;6.95;;;;;;;;;;4969488;28;20033;-87
2023/05/13 01:20:42;;;;;;;15.75;7.22;;;;;;;;;;4949532;28;20050;-83
2023/05/13 01:23:09;;;;;;;9.07;6.63;;;;;;;;;;4964780;28;20082;-85
2023/05/13 01:25:35;;;;;;;11.32;7.57;;;;;;;;;;4966408;28;20481;-84
2023/05/13 01:28:01;;;;;;;15.02;7.20;;;;;;;;;;4969409;28;20519;-82
2023/05/13 01:30:27;;;;;;;11.90;7.35;;;;;;;;;;4964069;28;20048;-85
2023/05/13 01:32:53;;;;;;;11.30;7.75;;;;;;;;;;4967527;28;20178;-86
2023/05/13 01:35:20;;;;;;;14.18;8.70;;;;;;;;;;4948031;28;20511;-85
2023/05/13 01:37:47;;;;;;;9.18;6.95;;;;;;;;;;4944873;28;20043;-83
2023/05/13 01:40:13;;;;;;;9.68;7.80;;;;;;;;;;4966978;28;20070;-83
2023/05/13 01:42:39;;;;;;;12.48;7.97;;;;;;;;;;4972495;28;20054;-83
2023/05/13 01:45:06;;;;;;;12.80;8.65;;;;;;;;;;4956186;28;20049;-84
2023/05/13 01:47:32;;;;;;;16.27;8.05;;;;;;;;;;4984501;28;20097;-86
2023/05/13 01:49:58;;;;;;;12.65;7.57;;;;;;;;;;4972860;28;20038;-82
2023/05/13 01:52:24;;;;;;;11.98;8.65;;;;;;;;;;4984846;28;20573;-84
2023/05/13 01:54:50;;;;;;;13.23;8.43;;;;;;;;;;4971244;28;20038;-85
2023/05/13 01:57:16;;;;;;;13.40;8.25;;;;;;;;;;4969274;28;20034;-81
2023/05/13 01:59:42;;;;;;;12.48;8.00;;;;;;;;;;4987648;28;20030;-84
2023/05/13 02:02:08;;;;;;;10.50;7.80;;;;;;;;;;4996214;28;20057;-85
2023/05/13 02:04:34;;;;;;;15.48;8.65;;;;;;;;;;4982829;28;20476;-84
2023/05/13 02:07:00;;;;;;;15.30;7.97;;;;;;;;;;4989720;28;20057;-86
2023/05/13 02:09:26;;;;;;;11.68;8.38;;;;;;;;;;4971628;28;20026;-85
2023/05/13 02:11:52;;;;;;;13.38;8.43;;;;;;;;;;4986870;28;20073;-85
2023/05/13 02:14:19;;;;;;;14.55;8.05;;;;;;;;;;4988055;28;20036;-85
2023/05/13 02:16:45;;;;;;;10.60;8.13;;;;;;;;;;4983172;28;20484;-85
2023/05/13 02:19:11;;;;;;;9.98;7.68;;;;;;;;;;4987799;28;20058;-83
2023/05/13 02:21:37;;;;;;;15.18;7.97;;;;;;;;;;4961737;28;20034;-84
2023/05/13 02:24:03;;;;;;;24.73;16.40;;;;;;;;;;4987674;28;20034;-86
2023/05/13 02:26:29;;;;;;;40.63;24.88;;;;;;;;;;4986612;28;20055;-81
2023/05/13 02:28:55;;;;;;;18.67;10.80;;;;;;;;;;4984545;28;20061;-85
2023/05/13 02:31:21;;;;;;;15.18;7.75;;;;;;;;;;4970811;28;20030;-84
2023/05/13 02:33:47;;;;;;;12.02;7.75;;;;;;;;;;4986726;28;20034;-82
2023/05/13 02:36:13;;;;;;;16.38;7.88;;;;;;;;;;4987450;28;20042;-86
2023/05/13 02:38:39;;;;;;;14.27;8.30;;;;;;;;;;4985403;28;20026;-81
2023/05/13 02:41:06;;;;;;;9.50;7.13;;;;;;;;;;4971862;28;20357;-81
2023/05/13 02:43:32;;;;;;;14.40;7.40;;;;;;;;;;4978784;28;20416;-86
2023/05/13 02:45:58;;;;;;;17.17;7.35;;;;;;;;;;4984634;28;20037;-84
2023/05/13 02:48:24;;;;;;;10.02;7.30;;;;;;;;;;4987464;28;20041;-87
2023/05/13 02:50:50;;;;;;;11.30;7.68;;;;;;;;;;4988937;28;20026;-85
2023/05/13 02:53:16;;;;;;;10.32;7.72;;;;;;;;;;4989211;28;20049;-87
2023/05/13 02:55:42;;;;;;;13.20;8.07;;;;;;;;;;4981613;28;20506;-86
2023/05/13 02:58:09;;;;;;;16.55;7.88;;;;;;;;;;4985469;28;20026;-88
2023/05/13 03:00:35;;;;;;;14.98;7.88;;;;;;;;;;4981966;28;20125;-83
2023/05/13 03:03:01;;;;;;;13.30;7.85;;;;;;;;;;4984108;28;20033;-86
2023/05/13 03:05:27;;;;;;;10.68;7.38;;;;;;;;;;4987718;28;20034;-87
2023/05/13 03:07:53;;;;;;;15.52;8.30;;;;;;;;;;4986313;28;20137;-86
2023/05/13 03:10:19;;;;;;;10.93;7.35;;;;;;;;;;4985266;28;20149;-86
2023/05/13 03:12:45;;;;;;;18.33;8.70;;;;;;;;;;4982846;28;20030;-85
2023/05/13 03:15:11;;;;;;;12.48;8.10;;;;;;;;;;4985395;28;20038;-87
2023/05/13 03:17:37;;;;;;;14.73;8.50;;;;;;;;;;4982072;28;20543;-82
2023/05/13 03:20:03;;;;;;;8.75;6.65;;;;;;;;;;4986479;28;20104;-86
2023/05/13 03:22:29;;;;;;;15.45;7.70;;;;;;;;;;4982829;28;20504;-89
2023/05/13 03:24:57;;;;;;;11.02;7.40;;;;;;;;;;4988827;28;20495;-86
2023/05/13 03:27:23;;;;;;;14.50;7.95;;;;;;;;;;4970487;28;20125;-87
2023/05/13 03:29:49;;;;;;;14.00;7.35;;;;;;;;;;4988829;28;20161;-86
2023/05/13 03:32:15;;;;;;;11.80;7.13;;;;;;;;;;4987445;28;20380;-86
2023/05/13 03:34:41;;;;;;;8.15;7.07;;;;;;;;;;4983056;28;20259;-85
2023/05/13 03:37:07;;;;;;;13.63;7.00;;;;;;;;;;4989281;28;20480;-84
2023/05/13 03:39:33;;;;;;;13.35;7.72;;;;;;;;;;4987141;28;20027;-85
2023/05/13 03:42:00;;;;;;;12.63;7.05;;;;;;;;;;4989398;28;20454;-88
2023/05/13 03:44:26;;;;;;;15.18;7.82;;;;;;;;;;4983517;28;20046;-86
2023/05/13 03:46:52;;;;;;;20.40;8.32;;;;;;;;;;4989630;28;20033;-86
2023/05/13 03:49:18;;;;;;;16.15;7.18;;;;;;;;;;4983647;28;20126;-85
2023/05/13 03:51:44;;;;;;;13.52;7.55;;;;;;;;;;4986270;28;20474;-87
2023/05/13 03:54:10;;;;;;;17.33;7.45;;;;;;;;;;4983704;28;20030;-86
2023/05/13 03:56:36;;;;;;;11.85;7.50;;;;;;;;;;4971274;28;20052;-88
2023/05/13 03:59:02;;;;;;;16.08;7.22;;;;;;;;;;4989155;28;20399;-83
2023/05/13 04:01:29;;;;;;;13.32;7.15;;;;;;;;;;4991644;28;20041;-84
2023/05/13 04:03:55;;;;;;;11.63;6.70;;;;;;;;;;4989742;28;20058;-86
2023/05/13 04:06:21;;;;;;;11.70;6.68;;;;;;;;;;4984765;28;20055;-87
2023/05/13 04:08:48;;;;;;;12.30;7.07;;;;;;;;;;4981659;28;20030;-84
2023/05/13 04:11:14;;;;;;;14.88;7.43;;;;;;;;;;4984987;28;20038;-87
2023/05/13 04:13:40;;;;;;;14.43;6.72;;;;;;;;;;4967512;28;20118;-86
2023/05/13 04:16:06;;;;;;;9.63;7.00;;;;;;;;;;4989132;28;20042;-83
2023/05/13 04:18:33;;;;;;;16.90;7.43;;;;;;;;;;4986875;28;20491;-82
2023/05/13 04:20:59;;;;;;;10.10;6.72;;;;;;;;;;4984479;28;20042;-85
2023/05/13 04:23:25;;;;;;;11.63;7.13;;;;;;;;;;4983069;28;20038;-87
2023/05/13 04:25:51;;;;;;;12.23;7.55;;;;;;;;;;4984634;28;20093;-86
2023/05/13 04:28:18;;;;;;;9.80;6.88;;;;;;;;;;4983945;28;20145;-87
2023/05/13 04:30:44;;;;;;;13.50;6.90;;;;;;;;;;4995249;28;20025;-88
2023/05/13 04:33:10;;;;;;;20.67;7.32;;;;;;;;;;4990253;28;20093;-89
2023/05/13 04:35:36;;;;;;;16.77;6.80;;;;;;;;;;4988959;28;20034;-87
2023/05/13 04:38:02;;;;;;;10.30;6.82;;;;;;;;;;4989820;28;20126;-84
2023/05/13 04:40:28;;;;;;;12.57;6.78;;;;;;;;;;4988257;28;20058;-85
2023/05/13 04:42:54;;;;;;;15.43;7.20;;;;;;;;;;4991124;28;20081;-86
2023/05/13 04:45:20;;;;;;;12.55;6.68;;;;;;;;;;4988553;28;20375;-87
2023/05/13 04:47:47;;;;;;;11.70;6.93;;;;;;;;;;4995796;28;20096;-85
2023/05/13 04:50:13;;;;;;;8.57;5.85;;;;;;;;;;4977603;28;20027;-84
2023/05/13 04:52:41;;;;;;;13.52;6.80;;;;;;;;;;4996070;28;20038;-84
2023/05/13 04:55:07;;;;;;;13.13;6.55;;;;;;;;;;4982818;28;20149;-87
2023/05/13 04:57:33;;;;;;;9.73;6.00;;;;;;;;;;4990760;28;20383;-88
2023/05/13 04:59:59;;;;;;;15.15;7.30;;;;;;;;;;4992468;28;20038;-89
2023/05/13 05:02:28;;;;;;;13.05;6.30;;;;;;;;;;4987119;28;20085;-81
2023/05/13 05:04:54;;;;;;;15.05;6.20;;;;;;;;;;4978235;28;20048;-89
2023/05/13 05:07:20;;;;;;;10.32;5.88;;;;;;;;;;4988541;28;20034;-86
2023/05/13 05:09:46;;;;;;;14.63;6.85;;;;;;;;;;4972531;28;20431;-87
2023/05/13 05:12:12;;;;;;;16.00;6.50;;;;;;;;;;4988452;28;20069;-86
2023/05/13 05:14:38;;;;;;;10.57;6.72;;;;;;;;;;4990064;28;20120;-87
2023/05/13 05:17:04;;;;;;;11.73;6.53;;;;;;;;;;4975582;28;20484;-87
2023/05/13 05:19:31;;;;;;;10.45;6.18;;;;;;;;;;4993404;28;20038;-85
2023/05/13 05:21:57;;;;;;;9.02;6.18;;;;;;;;;;4986296;28;20053;-90
2023/05/13 05:24:23;;;;;;;10.45;6.05;;;;;;;;;;4988207;28;20210;-86
2023/05/13 05:26:49;;;;;;;11.32;6.72;;;;;;;;;;4973774;28;20061;-81
2023/05/13 05:29:15;;;;;;;12.35;6.47;;;;;;;;;;4988131;28;20101;-88
2023/05/13 05:31:41;;;;;;;10.75;6.13;;;;;;;;;;4992266;28;20043;-89
2023/05/13 05:34:07;;;;;;;9.30;6.15;;;;;;;;;;4987202;28;20110;-86
2023/05/13 05:36:33;;;;;;;18.40;6.32;;;;;;;;;;4972077;28;20041;-87
2023/05/13 05:38:59;;;;;;;14.15;6.40;;;;;;;;;;4986894;28;20026;-87
2023/05/13 05:41:25;;;;;;;8.40;6.43;;;;;;;;;;4971361;28;20484;-87
2023/05/13 05:43:51;;;;;;;10.35;6.72;;;;;;;;;;4987846;28;20134;-82
2023/05/13 05:46:17;;;;;;;17.63;7.28;;;;;;;;;;4989983;28;20539;-86
2023/05/13 05:48:43;;;;;;;11.07;6.72;;;;;;;;;;4987312;28;20085;-87
2023/05/13 05:51:09;;;;;;;12.23;6.53;;;;;;;;;;4979055;28;20042;-88
2023/05/13 05:53:39;;;;;;;14.57;6.95;;;;;;;;;;4970532;28;20038;-84
2023/05/13 05:56:06;;;;;;;11.48;6.22;;;;;;;;;;4978122;28;20480;-78
2023/05/13 05:58:32;;;;;;;10.25;5.72;;;;;;;;;;4971095;28;20463;-78
2023/05/13 06:00:59;;;;;;;9.40;5.65;;;;;;;;;;4970709;28;20027;-78
2023/05/13 06:03:25;;;;;;;8.65;5.65;;;;;;;;;;4968856;28;20088;-80
2023/05/13 06:05:51;;;;;;;15.50;6.22;;;;;;;;;;4973858;28;20364;-82
2023/05/13 06:08:17;;;;;;;25.25;14.00;;;;;;;;;;4984248;28;20040;-78
2023/05/13 06:10:43;;;;;;;18.00;10.20;;;;;;;;;;4989461;28;20031;-79
2023/05/13 06:13:10;;;;;;;14.60;6.38;;;;;;;;;;4979290;28;20502;-79
2023/05/13 06:15:37;;;;;;;14.00;6.57;;;;;;;;;;4990914;28;20034;-87
2023/05/13 06:18:04;;;;;;;8.43;5.70;;;;;;;;;;4989898;28;20114;-77
2023/05/13 06:20:30;;;;;;;10.68;6.03;;;;;;;;;;4976044;28;20022;-78
2023/05/13 06:22:56;;;;;;;12.65;5.95;;;;;;;;;;4983613;28;20491;-80
2023/05/13 06:25:22;;;;;;;13.40;5.30;;;;;;;;;;4989963;28;20034;-78
2023/05/13 06:27:49;;;;;;;9.50;5.53;;;;;;;;;;4984147;28;20113;-78
2023/05/13 06:30:15;;;;;;;11.45;5.25;;;;;;;;;;4987409;28;20023;-81
2023/05/13 06:32:41;;;;;;;10.60;5.03;;;;;;;;;;4981131;28;20045;-82
2023/05/13 06:35:07;;;;;;;15.45;9.85;;;;;;;;;;4979050;28;20031;-80
2023/05/13 06:37:33;;;;;;;12.05;6.22;;;;;;;;;;4987086;28;20122;-80
2023/05/13 06:39:59;;;;;;;11.23;5.85;;;;;;;;;;4987027;28;20042;-78
2023/05/13 06:42:25;;;;;;;8.20;5.07;;;;;;;;;;4985198;28;20174;-80
2023/05/13 06:44:52;;;;;;;8.68;5.47;;;;;;;;;;4987743;28;20034;-76
2023/05/13 06:47:17;;;;;;;10.65;4.90;;;;;;;;;;4985499;28;20034;-88
2023/05/13 06:49:44;;;;;;;12.98;5.07;;;;;;;;;;4986253;28;20080;-81
2023/05/13 06:52:10;;;;;;;11.73;4.80;;;;;;;;;;4982460;28;20107;-83
2023/05/13 06:54:36;;;;;;;9.93;4.88;;;;;;;;;;4969250;28;20041;-83
2023/05/13 06:57:06;;;;;;;10.43;5.07;;;;;;;;;;4984048;28;20038;-81
2023/05/13 06:59:32;;;;;;;11.45;4.68;;;;;;;;;;4978991;28;20074;-81
2023/05/13 07:01:58;;;;;;;11.10;4.95;;;;;;;;;;4975462;28;20034;-81
2023/05/13 07:04:24;;;;;;;13.45;5.25;;;;;;;;;;4981673;28;20041;-77
2023/05/13 07:06:50;;;;;;;6.50;4.75;;;;;;;;;;4985932;28;20038;-79
2023/05/13 07:09:16;;;;;;;13.10;4.47;;;;;;;;;;4982895;28;20437;-79
2023/05/13 07:11:42;;;;;;;13.48;4.35;;;;;;;;;;4987789;28;20069;-79
2023/05/13 07:14:08;;;;;;;8.18;4.45;;;;;;;;;;4995226;28;20045;-78
2023/05/13 07:16:35;;;;;;;8.73;4.43;;;;;;;;;;4987325;28;20094;-80
2023/05/13 07:19:01;;;;;;;8.10;4.57;;;;;;;;;;4967301;28;20080;-81
2023/05/13 07:21:27;;;;;;;10.65;4.70;;;;;;;;;;4985949;28;20067;-76
2023/05/13 07:23:53;;;;;;;10.23;3.95;;;;;;;;;;4987524;28;20034;-80
2023/05/13 07:26:19;;;;;;;8.60;4.00;;;;;;;;;;4973964;28;20046;-82
2023/05/13 07:28:44;;;;;;;19.92;11.23;;;;;;;;;;4987332;28;20395;-83
2023/05/13 07:31:11;;;;;;;19.48;10.95;;;;;;;;;;4991683;28;20069;-79
2023/05/13 07:33:37;;;;;;;7.35;3.90;;;;;;;;;;4987969;28;20033;-85
2023/05/13 07:36:03;;;;;;;12.57;3.75;;;;;;;;;;4968292;28;20054;-74
2023/05/13 07:38:29;;;;;;;8.38;3.85;;;;;;;;;;4970263;28;20042;-77
2023/05/13 07:40:55;;;;;;;5.65;3.35;;;;;;;;;;4951687;28;20507;-76
2023/05/13 07:43:24;;;;;;;6.88;3.67;;;;;;;;;;4985544;28;20266;-76
2023/05/13 07:45:50;;;;;;;15.50;3.80;;;;;;;;;;4967117;28;20030;-79
2023/05/13 07:48:16;;;;;;;9.23;4.38;;;;;;;;;;4984329;28;20082;-80
2023/05/13 07:50:46;;;;;;;6.32;3.63;;;;;;;;;;4977588;28;20030;-81
2023/05/13 07:53:12;;;;;;;14.45;4.57;;;;;;;;;;4959625;28;20038;-80
2023/05/13 07:55:38;;;;;;;7.32;3.75;;;;;;;;;;4965247;28;20049;-80
2023/05/13 07:58:05;;;;;;;7.70;3.50;;;;;;;;;;4985113;28;20088;-80
2023/05/13 08:00:31;;;;;;;5.97;3.40;;;;;;;;;;4985475;28;20468;-80
2023/05/13 08:02:57;;;;;;;13.65;3.42;;;;;;;;;;4985220;28;20054;-77
2023/05/13 08:05:23;;;;;;;10.65;3.70;;;;;;;;;;4986376;28;20034;-77
2023/05/13 08:07:50;;;;;;;18.92;10.07;;;;;;;;;;4978398;28;20483;-87
2023/05/13 08:10:16;;;;;;;11.35;3.85;;;;;;;;;;4989869;28;20552;-85
2023/05/13 08:12:42;;;;;;;8.55;5.03;;;;;;;;;;4984650;28;20033;-88
2023/05/13 08:15:10;;;;;;;7.13;3.60;;;;;;;;;;4991796;28;20084;-83
2023/05/13 08:17:36;;;;;;;21.83;6.07;;;;;;;;;;4987263;28;20512;-83
2023/05/13 08:20:03;;;;;;;6.15;3.40;;;;;;;;;;4990774;28;20462;-88
2023/05/13 08:22:29;;;;;;;6.93;3.50;;;;;;;;;;4994570;28;20049;-89
2023/05/13 08:24:54;;;;;;;7.80;3.25;;;;;;;;;;4989271;28;20550;-87
2023/05/13 08:27:21;;;;;;;6.07;3.55;;;;;;;;;;4990471;28;20121;-86
2023/05/13 08:29:47;;;;;;;6.55;3.13;;;;;;;;;;4970780;28;20026;-88
2023/05/13 08:32:13;;;;;;;8.98;3.90;;;;;;;;;;4993996;28;20049;-85
2023/05/13 08:34:39;;;;;;;7.28;3.40;;;;;;;;;;4966470;28;20042;-88
2023/05/13 08:37:05;;;;;;;6.95;3.55;;;;;;;;;;4989445;28;20038;-79
2023/05/13 08:39:31;;;;;;;11.63;3.47;;;;;;;;;;4982763;28;20027;-82
2023/05/13 08:41:58;;;;;;;5.32;3.05;;;;;;;;;;4969328;28;20044;-82
2023/05/13 08:44:27;;;;;;;11.80;5.72;;;;;;;;;;4982471;28;20438;-79
2023/05/13 08:46:59;;;;;;;10.30;5.55;;;;;;;;;;4970867;28;20042;-80
2023/05/13 08:49:26;;;;;;;8.00;3.78;;;;;;;;;;4974853;28;20116;-80
2023/05/13 08:51:52;;;;;;;7.15;2.80;;;;;;;;;;4977774;28;20527;-78
2023/05/13 08:54:18;;;;;;;6.35;3.10;;;;;;;;;;4984205;28;20089;-79
2023/05/13 08:56:44;;;;;;;7.30;3.30;;;;;;;;;;4982809;28;20038;-78
2023/05/13 08:59:10;;;;;;;7.45;3.35;;;;;;;;;;4987585;28;20128;-80
2023/05/13 09:01:37;;;;;;;13.38;4.13;;;;;;;;;;4983664;28;21018;-81
2023/05/13 09:04:06;;;;;;;12.45;3.92;;;;;;;;;;4982265;28;20041;-79
2023/05/13 09:06:32;;;;;;;8.48;3.65;;;;;;;;;;4988482;28;20066;-79
2023/05/13 09:08:58;;;;;;;5.20;3.10;;;;;;;;;;4982674;28;20109;-83
2023/05/13 09:11:25;;;;;;;7.47;3.42;;;;;;;;;;4981046;28;20146;-82
2023/05/13 09:14:01;;;;;;;7.13;3.38;;;;;;;;;;4983173;28;20031;-79
2023/05/13 09:16:28;;;;;;;10.85;2.90;;;;;;;;;;4982237;28;20109;-83
2023/05/13 09:18:58;;;;;;;10.10;3.55;;;;;;;;;;4982997;28;20026;-80
2023/05/13 09:21:25;;;;;;;7.47;3.50;;;;;;;;;;4982229;28;20065;-79
2023/05/13 09:24:12;;;;;;;5.20;3.42;;;;;;;;;;4980175;28;20042;-81
2023/05/13 09:26:38;;;;;;;14.93;4.82;;;;;;;;;;4977476;28;20054;-79
2023/05/13 09:29:21;;;;;;;10.73;3.67;;;;;;;;;;4964864;28;20172;-80
2023/05/13 09:31:48;;;;;;;4.20;3.10;;;;;;;;;;4980685;28;20038;-79
2023/05/13 09:34:24;;;;;;;7.90;4.13;;;;;;;;;;4990589;28;20030;-81
2023/05/13 09:36:54;;;;;;;13.10;9.02;;;;;;;;;;4986186;28;20085;-80
2023/05/13 09:39:20;;;;;;;7.77;3.33;;;;;;;;;;4988872;28;20106;-78
2023/05/13 09:41:46;;;;;;;6.65;3.03;;;;;;;;;;4989328;28;20113;-77
2023/05/13 09:44:12;;;;;;;8.52;3.10;;;;;;;;;;4968420;28;20142;-79
2023/05/13 09:46:38;;;;;;;8.13;3.92;;;;;;;;;;5009584;28;20045;-78
2023/05/13 09:49:04;;;;;;;6.57;2.83;;;;;;;;;;4987237;28;20030;-80
2023/05/13 09:51:30;;;;;;;7.90;2.60;;;;;;;;;;4980026;28;20042;-83
2023/05/13 09:54:06;;;;;;;6.40;3.55;;;;;;;;;;4982345;28;20033;-79
2023/05/13 09:56:34;;;;;;;7.45;3.33;;;;;;;;;;4982274;28;20166;-80
2023/05/13 09:59:01;;;;;;;9.00;3.38;;;;;;;;;;4983747;28;20035;-80
2023/05/13 10:01:27;;;;;;;6.90;3.20;;;;;;;;;;4981695;28;20165;-79
2023/05/13 10:03:58;;;;;;;10.32;2.90;;;;;;;;;;4981058;28;20093;-79
2023/05/13 10:06:25;;;;;;;6.97;3.77;;;;;;;;;;4980332;28;20492;-80
2023/05/13 10:08:51;;;;;;;13.13;3.55;;;;;;;;;;4980817;28;20022;-82
2023/05/13 10:11:23;;;;;;;6.15;2.97;;;;;;;;;;4979327;28;20045;-77
2023/05/13 10:14:04;;;;;;;5.10;3.08;;;;;;;;;;4980402;28;20041;-81
2023/05/13 10:16:32;;;;;;;6.82;3.20;;;;;;;;;;4984310;28;20191;-82
2023/05/13 10:18:58;;;;;;;7.93;5.53;;;;;;;;;;4985977;28;20042;-85
2023/05/13 10:21:27;;;;;;;7.57;3.60;;;;;;;;;;4985291;28;20049;-81
2023/05/13 10:23:54;;;;;;;6.25;3.10;;;;;;;;;;4983126;28;20476;-78
2023/05/13 10:26:21;;;;;;;8.75;3.42;;;;;;;;;;4986215;28;20046;-81
2023/05/13 10:28:47;;;;;;;4.38;2.90;;;;;;;;;;4985544;28;20041;-79
2023/05/13 10:31:13;;;;;;;5.30;2.90;;;;;;;;;;4984664;28;20031;-85
2023/05/13 10:33:40;;;;;;;6.38;3.00;;;;;;;;;;4985213;28;20148;-80
2023/05/13 10:36:10;;;;;;;6.07;3.22;;;;;;;;;;4985718;28;20033;-79
2023/05/13 10:38:50;;;;;;;8.15;3.08;;;;;;;;;;4986283;28;20022;-79
2023/05/13 10:41:22;;;;;;;8.73;3.00;;;;;;;;;;4984229;28;20073;-81
2023/05/13 10:43:55;;;;;;;8.07;4.07;;;;;;;;;;4981699;28;20102;-77
2023/05/13 10:46:22;;;;;;;6.72;3.38;;;;;;;;;;4978026;28;20039;-78
2023/05/13 10:48:49;;;;;;;10.15;6.03;;;;;;;;;;4986426;28;20042;-79
2023/05/13 10:51:16;;;;;;;14.95;8.98;;;;;;;;;;4984426;28;20034;-79
2023/05/13 10:53:49;;;;;;;6.55;3.17;;;;;;;;;;4984923;28;20431;-80
2023/05/13 10:56:18;;;;;;;9.98;3.45;;;;;;;;;;4984296;28;20381;-80
2023/05/13 10:58:56;;;;;;;7.20;3.10;;;;;;;;;;4986086;28;20476;-80
2023/05/13 11:01:45;;;;;;;7.13;3.97;;;;;;;;;;4980136;28;20070;-80
2023/05/13 11:04:12;;;;;;;8.20;4.35;;;;;;;;;;4988126;28;20372;-81
2023/05/13 11:06:40;;;;;;;9.90;3.92;;;;;;;;;;4965777;28;20125;-79
2023/05/13 11:09:12;;;;;;;17.40;10.07;;;;;;;;;;4985508;28;20101;-78
2023/05/13 11:11:38;;;;;;;10.73;6.03;;;;;;;;;;4982084;28;20026;-78
2023/05/13 11:14:20;;;;;;;8.32;3.78;;;;;;;;;;4984611;28;20279;-78
2023/05/13 11:16:46;;;;;;;6.38;3.97;;;;;;;;;;4967666;28;20373;-79
2023/05/13 11:19:38;;;;;;;9.02;4.00;;;;;;;;;;4987185;28;20030;-79
2023/05/13 11:22:09;;;;;;;13.48;4.38;;;;;;;;;;4986069;28;20558;-78
2023/05/13 11:24:35;;;;;;;6.22;4.03;;;;;;;;;;4987805;28;20483;-79
2023/05/13 11:27:13;;;;;;;8.35;4.45;;;;;;;;;;4968824;28;20088;-79
2023/05/13 11:29:47;;;;;;;10.73;4.20;;;;;;;;;;4986639;28;20027;-78
2023/05/13 11:32:13;;;;;;;9.98;3.92;;;;;;;;;;4980386;28;20042;-78
2023/05/13 11:34:50;;;;;;;9.73;3.75;;;;;;;;;;4989742;28;20044;-78
2023/05/13 11:37:16;;;;;;;7.95;4.43;;;;;;;;;;4987555;28;20037;-79
2023/05/13 11:39:42;;;;;;;10.02;3.88;;;;;;;;;;4990844;28;20041;-79
2023/05/13 11:42:09;;;;;;;7.90;3.45;;;;;;;;;;4988273;28;20046;-78
2023/05/13 11:44:36;;;;;;;9.13;3.72;;;;;;;;;;4989348;28;20411;-78
2023/05/13 11:47:04;;;;;;;13.45;4.45;;;;;;;;;;4992448;28;20037;-79
2023/05/13 11:49:31;;;;;;;9.45;4.50;;;;;;;;;;4982821;28;20121;-78
2023/05/13 11:51:58;;;;;;;8.00;4.65;;;;;;;;;;4988741;28;20030;-78
2023/05/13 11:54:24;;;;;;;8.77;4.43;;;;;;;;;;4988232;28;20042;-79
2023/05/13 11:56:50;;;;;;;8.50;3.75;;;;;;;;;;4986891;28;20061;-78
2023/05/13 11:59:16;;;;;;;8.48;3.20;;;;;;;;;;4985981;28;20050;-78
2023/05/13 12:01:43;;;;;;;5.78;3.50;;;;;;;;;;4974242;28;20039;-78
2023/05/13 12:04:09;;;;;;;8.50;3.95;;;;;;;;;;4986834;28;20069;-78
2023/05/13 12:06:43;;;;;;;6.43;3.45;;;;;;;;;;4986294;28;20041;-78
2023/05/13 12:09:10;;;;;;;9.50;4.63;;;;;;;;;;4986036;28;20026;-79
2023/05/13 12:11:37;;;;;;;9.27;4.38;;;;;;;;;;4987090;28;20045;-78
2023/05/13 12:14:03;;;;;;;11.30;4.22;;;;;;;;;;4986593;28;20445;-79
2023/05/13 12:16:29;;;;;;;7.03;4.22;;;;;;;;;;4968175;28;20042;-78
2023/05/13 12:18:59;;;;;;;11.93;4.35;;;;;;;;;;4971600;28;20038;-79
2023/05/13 12:21:26;;;;;;;10.02;4.05;;;;;;;;;;4981632;28;20404;-78
2023/05/13 12:23:52;;;;;;;13.55;4.05;;;;;;;;;;4978347;28;20031;-78
2023/05/13 12:26:18;;;;;;;5.65;4.10;;;;;;;;;;4988095;28;20042;-78
2023/05/13 12:28:44;;;;;;;6.55;3.78;;;;;;;;;;4986098;28;20037;-78
2023/05/13 12:31:16;;;;;;;7.82;3.90;;;;;;;;;;4987771;28;20038;-79
2023/05/13 12:33:42;;;;;;;7.50;4.03;;;;;;;;;;4981701;28;20105;-79
2023/05/13 12:36:24;;;;;;;7.30;4.18;;;;;;;;;;4989040;28;20026;-79
2023/05/13 12:38:56;;;;;;;7.15;4.50;;;;;;;;;;4987444;28;20034;-78
2023/05/13 12:41:22;;;;;;;;;;;;;;;;;;4987603;28;20026;-78
2023/05/13 12:43:48;;;;;;;11.32;4.22;;;;;;;;;;4987052;28;19922;-79
2023/05/13 12:46:14;;;;;;;7.85;3.60;;;;;;;;;;4985263;28;20120;-79
2023/05/13 12:48:40;;;;;;;9.27;3.97;;;;;;;;;;4987507;28;21907;-78
2023/05/13 12:51:06;;;;;;;8.48;3.85;;;;;;;;;;4988761;28;20027;-80
2023/05/13 12:53:32;;;;;;;13.10;3.78;;;;;;;;;;4991137;28;20061;-80
2023/05/13 12:55:58;;;;;;;7.88;3.70;;;;;;;;;;4991553;28;20112;-78
2023/05/13 12:58:24;;;;;;;9.65;3.80;;;;;;;;;;4990039;28;20148;-79
2023/05/13 13:00:50;;;;;;;6.80;3.92;;;;;;;;;;4994029;28;20037;-79
2023/05/13 13:03:16;;;;;;;7.75;3.78;;;;;;;;;;4991993;28;20031;-80
2023/05/13 13:05:42;;;;;;;5.45;3.95;;;;;;;;;;4990752;28;20038;-79
2023/05/13 13:08:08;;;;;;;8.90;3.55;;;;;;;;;;4989550;28;20069;-79
2023/05/13 13:10:34;;;;;;;10.57;3.60;;;;;;;;;;4974608;28;20379;-78
2023/05/13 13:13:00;;;;;;;9.82;3.75;;;;;;;;;;4981611;28;20026;-79
2023/05/13 13:15:26;;;;;;;5.10;3.90;;;;;;;;;;4991649;28;20763;-79
2023/05/13 13:17:52;;;;;;;10.77;3.55;;;;;;;;;;4981457;28;20535;-79
2023/05/13 13:20:18;;;;;;;7.50;3.50;;;;;;;;;;4989827;28;20027;-79
2023/05/13 13:22:44;;;;;;;6.75;3.45;;;;;;;;;;4988826;28;20121;-78
2023/05/13 13:25:11;;;;;;;8.60;3.30;;;;;;;;;;4983583;28;20373;-83
2023/05/13 13:27:37;;;;;;;9.80;3.30;;;;;;;;;;4989001;28;20040;-83
2023/05/13 13:30:03;;;;;;;6.72;4.32;;;;;;;;;;4989107;28;20435;-84
2023/05/13 13:32:29;;;;;;;8.00;3.40;;;;;;;;;;4997059;28;20069;-82
2023/05/13 13:34:56;;;;;;;5.15;3.15;;;;;;;;;;4988011;28;20034;-80
2023/05/13 13:37:23;;;;;;;7.45;2.97;;;;;;;;;;4989363;28;20164;-81
2023/05/13 13:39:48;;;;;;;6.25;3.10;;;;;;;;;;4964093;28;20061;-78
2023/05/13 13:42:14;;;;;;;9.52;3.10;;;;;;;;;;4984116;28;20066;-80
2023/05/13 13:44:41;;;;;;;7.93;3.10;;;;;;;;;;4986232;28;20145;-77
2023/05/13 13:47:07;;;;;;;6.95;3.30;;;;;;;;;;4985583;28;20049;-80
2023/05/13 13:49:33;;;;;;;6.05;3.08;;;;;;;;;;4984805;28;20031;-81
2023/05/13 13:51:59;;;;;;;12.30;3.35;;;;;;;;;;4972759;28;20085;-80
2023/05/13 13:54:25;;;;;;;14.68;4.00;;;;;;;;;;4984904;28;20419;-79
2023/05/13 13:56:51;;;;;;;8.23;3.97;;;;;;;;;;4979101;28;20057;-79
2023/05/13 13:59:18;;;;;;;13.73;4.07;;;;;;;;;;4984929;28;20519;-79
2023/05/13 14:01:44;;;;;;;7.35;3.78;;;;;;;;;;4969257;28;20125;-81
2023/05/13 14:04:14;;;;;;;10.75;3.50;;;;;;;;;;4981343;28;20435;-81
2023/05/13 14:06:41;;;;;;;9.75;4.70;;;;;;;;;;4989756;28;20038;-80
2023/05/13 14:09:08;;;;;;;4.97;3.28;;;;;;;;;;4989329;28;20031;-81
2023/05/13 14:11:34;;;;;;;11.82;3.25;;;;;;;;;;4990809;28;20038;-80
2023/05/13 14:14:00;;;;;;;9.13;3.28;;;;;;;;;;4968168;28;20043;-81
2023/05/13 14:16:26;;;;;;;15.80;3.40;;;;;;;;;;4975809;28;20074;-79
2023/05/13 14:18:52;;;;;;;6.25;3.20;;;;;;;;;;4988339;28;20069;-79
2023/05/13 14:21:18;;;;;;;6.65;3.75;;;;;;;;;;4953454;28;20035;-79
2023/05/13 14:23:44;;;;;;;12.18;3.92;;;;;;;;;;4963459;28;20030;-80
2023/05/13 14:26:13;;;;;;;8.23;3.00;;;;;;;;;;4985123;28;20068;-81
2023/05/13 14:28:39;;;;;;;5.75;2.83;;;;;;;;;;4989963;28;20092;-80
2023/05/13 14:31:05;;;;;;;14.15;3.28;;;;;;;;;;4967324;28;20086;-79
2023/05/13 14:33:31;;;;;;;8.85;3.00;;;;;;;;;;4986296;28;20065;-79
2023/05/13 14:35:57;;;;;;;4.68;3.40;;;;;;;;;;4970264;28;20504;-80